createdAt,value
2019-02-20T00:00:32.552Z,94301.19
2019-02-20T00:03:01.223Z,94303.09
2019-02-20T00:05:29.073Z,94305.43
2019-02-20T00:07:56.927Z,94296.27
2019-02-20T00:10:24.935Z,94297.38
2019-02-20T00:12:52.844Z,94295.17
2019-02-20T00:15:21.018Z,94295.61
2019-02-20T00:17:48.881Z,94300.23
2019-02-20T00:20:16.778Z,94313.23
2019-02-20T00:22:44.637Z,94303.79
2019-02-20T00:25:12.492Z,94304.94
2019-02-20T00:27:40.330Z,94308.22
2019-02-20T00:30:08.224Z,94303.48
2019-02-20T00:32:36.059Z,94304.22
2019-02-20T00:35:04.091Z,94305.31
2019-02-20T00:37:31.913Z,94298.61
2019-02-20T00:39:59.902Z,94304.62
2019-02-20T00:42:27.714Z,94302.38
2019-02-20T00:45:30.474Z,94308.13
2019-02-20T00:48:23.858Z,94308.52
2019-02-20T00:50:56.243Z,94308.81
2019-02-20T00:53:31.495Z,94309.38
2019-02-20T00:55:59.373Z,94304.97
2019-02-20T00:58:27.198Z,94306.91
2019-02-20T01:00:55.042Z,94316.77
2019-02-20T01:03:22.873Z,94315.44
2019-02-20T01:05:50.719Z,94312.02
2019-02-20T01:08:18.681Z,94304.53
2019-02-20T01:10:46.607Z,94306.44
2019-02-20T01:13:14.572Z,94307.91
2019-02-20T01:15:42.414Z,94305.83
2019-02-20T01:18:10.290Z,94301.45
2019-02-20T01:20:38.143Z,94303.09
2019-02-20T01:23:06.020Z,94300.73
2019-02-20T01:25:33.861Z,94302.38
2019-02-20T01:28:01.819Z,94305.27
2019-02-20T01:30:29.629Z,94302.09
2019-02-20T01:32:57.459Z,94307.75
2019-02-20T01:35:25.299Z,94302.46
2019-02-20T01:37:53.251Z,94301.78
2019-02-20T01:40:21.068Z,94306.56
2019-02-20T01:42:48.930Z,94314.77
2019-02-20T01:45:16.757Z,94315.03
2019-02-20T01:47:44.567Z,94309.75
2019-02-20T01:50:12.529Z,94304.41
2019-02-20T01:52:40.623Z,94304.31
2019-02-20T01:55:08.548Z,94311.48
2019-02-20T01:57:36.391Z,94302.28
2019-02-20T02:00:05.803Z,94303.85
2019-02-20T02:02:33.654Z,94304.86
2019-02-20T02:05:01.627Z,94309.84
2019-02-20T02:07:29.466Z,94308.20
2019-02-20T02:09:57.319Z,94305.27
2019-02-20T02:12:25.188Z,94308.20
2019-02-20T02:14:53.076Z,94303.97
2019-02-20T02:17:20.882Z,94305.05
2019-02-20T02:19:48.725Z,94299.52
2019-02-20T02:22:16.557Z,94300.66
2019-02-20T02:24:44.354Z,94301.52
2019-02-20T02:27:12.538Z,94297.67
2019-02-20T02:29:40.357Z,94291.21
2019-02-20T02:32:08.197Z,94297.09
2019-02-20T02:34:36.022Z,94297.75
2019-02-20T02:37:03.981Z,94301.59
2019-02-20T02:39:31.793Z,94296.40
2019-02-20T02:41:59.646Z,94294.88
2019-02-20T02:44:27.489Z,94291.88
2019-02-20T02:46:55.315Z,94292.70
2019-02-20T02:49:23.206Z,94299.18
2019-02-20T02:51:51.012Z,94285.55
2019-02-20T02:54:18.822Z,94289.84
2019-02-20T02:56:46.674Z,94289.95
2019-02-20T02:59:14.798Z,94279.23
2019-02-20T03:01:42.636Z,94285.11
2019-02-20T03:04:10.467Z,94284.94
2019-02-20T03:06:38.336Z,94286.80
2019-02-20T03:09:06.518Z,94287.83
2019-02-20T03:11:34.623Z,94294.20
2019-02-20T03:14:02.484Z,94288.48
2019-02-20T03:16:30.426Z,94291.16
2019-02-20T03:18:58.259Z,94302.38
2019-02-20T03:21:26.104Z,94289.97
2019-02-20T03:23:53.933Z,94289.79
2019-02-20T03:26:22.075Z,94288.57
2019-02-20T03:28:49.917Z,94292.13
2019-02-20T03:31:17.738Z,94291.13
2019-02-20T03:33:45.613Z,94288.74
2019-02-20T03:36:13.453Z,94287.96
2019-02-20T03:38:41.323Z,94289.89
2019-02-20T03:41:09.137Z,94293.44
2019-02-20T03:43:36.967Z,94302.57
2019-02-20T03:46:04.830Z,94295.48
2019-02-20T03:48:32.723Z,94301.41
2019-02-20T03:51:00.526Z,94299.26
2019-02-20T03:53:28.476Z,94299.61
2019-02-20T03:55:57.056Z,94301.85
2019-02-20T03:58:24.856Z,94304.80
2019-02-20T04:00:52.699Z,94307.34
2019-02-20T04:03:20.888Z,94304.58
2019-02-20T04:05:48.742Z,94306.44
2019-02-20T04:08:16.585Z,94303.84
2019-02-20T04:10:44.730Z,94304.58
2019-02-20T04:13:12.594Z,94311.29
2019-02-20T04:15:40.452Z,94315.05
2019-02-20T04:18:08.299Z,94302.03
2019-02-20T04:20:36.208Z,94311.27
2019-02-20T04:23:04.008Z,94310.29
2019-02-20T04:25:31.825Z,94315.30
2019-02-20T04:27:59.662Z,94308.47
2019-02-20T04:30:27.512Z,94305.92
2019-02-20T04:32:55.317Z,94310.11
2019-02-20T04:35:23.225Z,94310.84
2019-02-20T04:37:51.086Z,94310.84
2019-02-20T04:40:18.946Z,94310.80
2019-02-20T04:42:46.822Z,94303.62
2019-02-20T04:45:14.745Z,94300.08
2019-02-20T04:47:42.617Z,94304.49
2019-02-20T04:50:10.432Z,94303.06
2019-02-20T04:52:38.324Z,94308.34
2019-02-20T04:55:06.235Z,94303.33
2019-02-20T04:57:34.089Z,94311.41
2019-02-20T05:00:01.940Z,94306.22
2019-02-20T05:02:29.870Z,94307.17
2019-02-20T05:04:57.827Z,94306.91
2019-02-20T05:07:25.660Z,94309.55
2019-02-20T05:09:53.510Z,94313.14
2019-02-20T05:12:21.309Z,94308.91
2019-02-20T05:14:49.477Z,94303.06
2019-02-20T05:17:17.299Z,94306.00
2019-02-20T05:19:45.129Z,94305.66
2019-02-20T05:22:12.999Z,94308.25
2019-02-20T05:24:41.164Z,94308.56
2019-02-20T05:27:09.049Z,94309.03
2019-02-20T05:29:36.911Z,94314.57
2019-02-20T05:32:04.769Z,94315.18
2019-02-20T05:34:32.614Z,94318.86
2019-02-20T05:37:00.433Z,94318.51
2019-02-20T05:39:28.400Z,94310.55
2019-02-20T05:41:56.278Z,94317.52
2019-02-20T05:44:24.133Z,94318.08
2019-02-20T05:46:51.975Z,94315.74
2019-02-20T05:49:19.786Z,94316.70
2019-02-20T05:51:47.633Z,94326.45
2019-02-20T05:54:15.465Z,94325.46
2019-02-20T05:56:43.318Z,94331.05
2019-02-20T05:59:11.193Z,94328.45
2019-02-20T06:01:39.017Z,94324.22
2019-02-20T06:04:09.606Z,94329.02
2019-02-20T06:06:37.453Z,94335.50
2019-02-20T06:09:05.648Z,94337.62
2019-02-20T06:11:33.465Z,94338.75
2019-02-20T06:14:01.345Z,94337.75
2019-02-20T06:16:29.185Z,94342.73
2019-02-20T06:18:57.023Z,94342.67
2019-02-20T06:21:24.867Z,94344.39
2019-02-20T06:23:52.702Z,94347.34
2019-02-20T06:26:20.613Z,94349.08
2019-02-20T06:28:48.449Z,94354.96
2019-02-20T06:31:16.587Z,94360.68
2019-02-20T06:33:44.494Z,94364.44
2019-02-20T06:36:12.358Z,94363.56
2019-02-20T06:38:40.197Z,94367.14
2019-02-20T06:41:08.034Z,94370.80
2019-02-20T06:43:35.927Z,94371.19
2019-02-20T06:46:03.794Z,94382.05
2019-02-20T06:48:31.617Z,94384.30
2019-02-20T06:50:59.545Z,94382.05
2019-02-20T06:53:27.397Z,94384.91
2019-02-20T06:55:55.227Z,94378.19
2019-02-20T06:58:23.053Z,94384.59
2019-02-20T07:00:50.914Z,94385.16
2019-02-20T07:03:18.773Z,94386.90
2019-02-20T07:06:30.839Z,94390.92
2019-02-20T07:09:31.663Z,94392.48
2019-02-20T07:12:44.065Z,94388.67
2019-02-20T07:16:22.133Z,94387.30
2019-02-20T07:19:35.213Z,94388.94
2019-02-20T07:23:19.183Z,94390.76
2019-02-20T07:26:38.349Z,94397.03
2019-02-20T07:29:44.260Z,94388.60
2019-02-20T07:32:15.955Z,94391.20
2019-02-20T07:34:43.801Z,94392.84
2019-02-20T07:37:11.807Z,94388.34
2019-02-20T07:39:39.641Z,94393.45
2019-02-20T07:42:07.461Z,94390.76
2019-02-20T07:44:35.339Z,94402.23
2019-02-20T07:47:03.182Z,94407.69
2019-02-20T07:49:31.023Z,94413.27
2019-02-20T07:51:58.868Z,94416.42
2019-02-20T07:54:26.731Z,94414.30
2019-02-20T07:56:54.593Z,94421.19
2019-02-20T07:59:22.801Z,94424.05
2019-02-20T08:01:51.234Z,94426.95
2019-02-20T08:04:19.045Z,94427.20
2019-02-20T08:06:46.948Z,94421.19
2019-02-20T08:09:14.848Z,94415.60
2019-02-20T08:11:42.761Z,94417.45
2019-02-20T08:14:10.614Z,94421.78
2019-02-20T08:16:38.441Z,94425.22
2019-02-20T08:19:06.295Z,94429.63
2019-02-20T08:21:34.137Z,94426.33
2019-02-20T08:24:02.081Z,94429.19
2019-02-20T08:26:29.924Z,94429.44
2019-02-20T08:28:57.753Z,94432.42
2019-02-20T08:31:25.650Z,94427.56
2019-02-20T08:33:53.512Z,94427.38
2019-02-20T08:36:21.629Z,94428.81
2019-02-20T08:38:49.448Z,94437.02
2019-02-20T08:41:17.266Z,94436.48
2019-02-20T08:43:45.112Z,94437.84
2019-02-20T08:46:12.948Z,94435.32
2019-02-20T08:48:41.067Z,94434.16
2019-02-20T08:51:08.891Z,94435.24
2019-02-20T08:53:36.794Z,94430.28
2019-02-20T08:56:04.727Z,94431.26
2019-02-20T08:58:32.558Z,94436.55
2019-02-20T09:01:00.418Z,94432.03
2019-02-20T09:03:28.263Z,94439.31
2019-02-20T09:05:56.124Z,94443.58
2019-02-20T09:08:23.973Z,94445.08
2019-02-20T09:10:51.783Z,94441.36
2019-02-20T09:13:19.623Z,94446.03
2019-02-20T09:15:47.437Z,94443.63
2019-02-20T09:18:15.292Z,94446.86
2019-02-20T09:20:43.112Z,94446.84
2019-02-20T09:23:10.963Z,94451.73
2019-02-20T09:25:41.598Z,94447.48
2019-02-20T09:28:09.018Z,94439.77
2019-02-20T09:30:36.856Z,94443.27
2019-02-20T09:33:04.730Z,94451.31
2019-02-20T09:35:32.741Z,94450.58
2019-02-20T09:38:00.604Z,94453.89
2019-02-20T09:40:28.478Z,94451.28
2019-02-20T09:42:56.318Z,94450.98
2019-02-20T09:45:24.137Z,94445.45
2019-02-20T09:47:51.989Z,94455.27
2019-02-20T09:50:19.827Z,94454.30
2019-02-20T09:52:52.337Z,94454.33
2019-02-20T09:55:17.428Z,94454.64
2019-02-20T09:57:45.318Z,94455.95
2019-02-20T10:00:14.173Z,94455.95
2019-02-20T10:02:42.018Z,94460.52
2019-02-20T10:05:10.016Z,94464.42
2019-02-20T10:07:37.952Z,94464.05
2019-02-20T10:10:06.659Z,94469.22
2019-02-20T10:12:34.542Z,94470.55
2019-02-20T10:15:02.721Z,94466.87
2019-02-20T10:17:30.571Z,94473.53
2019-02-20T10:19:58.415Z,94471.30
2019-02-20T10:22:26.210Z,94475.89
2019-02-20T10:24:54.090Z,94476.44
2019-02-20T10:27:21.928Z,94482.66
2019-02-20T10:29:49.798Z,94483.13
2019-02-20T10:32:17.680Z,94482.02
2019-02-20T10:34:45.542Z,94490.22
2019-02-20T10:37:13.389Z,94487.67
2019-02-20T10:39:41.277Z,94493.45
2019-02-20T10:42:09.162Z,94489.88
2019-02-20T10:44:37.016Z,94496.65
2019-02-20T10:47:05.128Z,94497.02
2019-02-20T10:49:33.000Z,94491.80
2019-02-20T10:52:01.352Z,94497.83
2019-02-20T10:54:29.171Z,94489.73
2019-02-20T10:56:57.037Z,94494.72
2019-02-20T10:59:24.883Z,94500.41
2019-02-20T11:01:52.759Z,94495.89
2019-02-20T11:04:20.608Z,94496.94
2019-02-20T11:06:48.458Z,94492.44
2019-02-20T11:09:16.427Z,94495.66
2019-02-20T11:11:44.281Z,94493.58
2019-02-20T11:14:12.118Z,94488.67
2019-02-20T11:16:40.581Z,94492.70
2019-02-20T11:19:08.463Z,94497.25
2019-02-20T11:21:36.314Z,94494.89
2019-02-20T11:24:04.169Z,94497.90
2019-02-20T11:26:32.098Z,94494.02
2019-02-20T11:28:59.982Z,94496.84
2019-02-20T11:31:27.833Z,94490.04
2019-02-20T11:33:55.671Z,94484.78
2019-02-20T11:36:23.540Z,94486.31
2019-02-20T11:38:51.361Z,94488.66
2019-02-20T11:41:19.201Z,94480.91
2019-02-20T11:43:47.065Z,94485.03
2019-02-20T11:46:14.895Z,94482.04
2019-02-20T11:48:42.713Z,94477.22
2019-02-20T11:51:10.823Z,94478.27
2019-02-20T11:53:38.758Z,94478.62
2019-02-20T11:56:06.634Z,94476.74
2019-02-20T11:58:34.455Z,94478.97
2019-02-20T12:01:02.913Z,94474.44
2019-02-20T12:03:30.761Z,94477.10
2019-02-20T12:05:58.624Z,94477.81
2019-02-20T12:08:26.543Z,94476.27
2019-02-20T12:10:54.951Z,94484.85
2019-02-20T12:13:22.883Z,94480.91
2019-02-20T12:15:50.710Z,94477.59
2019-02-20T12:18:18.637Z,94471.53
2019-02-20T12:20:46.456Z,94468.71
2019-02-20T12:23:14.344Z,94474.84
2019-02-20T12:25:42.182Z,94471.22
2019-02-20T12:28:10.152Z,94472.11
2019-02-20T12:30:38.179Z,94474.73
2019-02-20T12:33:06.142Z,94465.95
2019-02-20T12:35:34.095Z,94466.36
2019-02-20T12:38:02.538Z,94467.27
2019-02-20T12:40:30.708Z,94469.47
2019-02-20T12:42:58.572Z,94466.80
2019-02-20T12:45:26.528Z,94465.19
2019-02-20T12:47:54.437Z,94463.38
2019-02-20T12:50:22.304Z,94468.36
2019-02-20T12:52:50.216Z,94474.45
2019-02-20T12:55:18.077Z,94464.91
2019-02-20T12:57:45.910Z,94471.23
2019-02-20T13:00:14.907Z,94468.32
2019-02-20T13:02:42.783Z,94468.64
2019-02-20T13:05:10.985Z,94475.77
2019-02-20T13:07:38.809Z,94472.41
2019-02-20T13:10:07.149Z,94477.10
2019-02-20T13:12:35.061Z,94469.19
2019-02-20T13:15:02.951Z,94470.58
2019-02-20T13:17:30.831Z,94474.02
2019-02-20T13:19:58.703Z,94475.71
2019-02-20T13:22:26.554Z,94476.60
2019-02-20T13:24:54.454Z,94480.97
2019-02-20T13:27:23.134Z,94484.17
2019-02-20T13:29:51.085Z,94470.39
2019-02-20T13:32:18.952Z,94475.58
2019-02-20T13:34:46.842Z,94476.29
2019-02-20T13:37:14.750Z,94471.09
2019-02-20T13:39:42.626Z,94474.55
2019-02-20T13:42:10.508Z,94476.78
2019-02-20T13:44:38.635Z,94473.98
2019-02-20T13:47:06.513Z,94471.66
2019-02-20T13:49:34.343Z,94468.90
2019-02-20T13:52:02.219Z,94468.76
2019-02-20T13:54:30.136Z,94468.26
2019-02-20T13:57:01.766Z,94472.16
2019-02-20T13:59:28.158Z,94469.14
2019-02-20T14:01:56.214Z,94473.09
2019-02-20T14:04:24.052Z,94470.66
2019-02-20T14:06:52.157Z,94475.92
2019-02-20T14:09:20.035Z,94472.52
2019-02-20T14:11:47.844Z,94470.62
2019-02-20T14:14:16.688Z,94456.77
2019-02-20T14:16:44.761Z,94468.45
2019-02-20T14:19:12.893Z,94466.87
2019-02-20T14:21:40.860Z,94465.64
2019-02-20T14:24:08.699Z,94468.36
2019-02-20T14:26:36.637Z,94471.75
2019-02-20T14:29:04.501Z,94466.13
2019-02-20T14:31:32.403Z,94471.97
2019-02-20T14:34:00.311Z,94472.73
2019-02-20T14:36:28.641Z,94469.32
2019-02-20T14:38:56.545Z,94476.11
2019-02-20T14:41:24.427Z,94474.66
2019-02-20T14:43:52.304Z,94477.72
2019-02-20T14:46:20.155Z,94474.02
2019-02-20T14:48:48.083Z,94473.09
2019-02-20T14:51:15.999Z,94477.53
2019-02-20T14:53:44.252Z,94476.04
2019-02-20T14:56:12.667Z,94474.48
2019-02-20T14:58:40.502Z,94480.52
2019-02-20T15:01:08.383Z,94475.30
2019-02-20T15:03:36.253Z,94471.14
2019-02-20T15:06:04.105Z,94482.91
2019-02-20T15:08:31.963Z,94475.80
2019-02-20T15:11:00.241Z,94481.80
2019-02-20T15:13:28.070Z,94476.89
2019-02-20T15:15:55.986Z,94474.01
2019-02-20T15:18:23.880Z,94476.22
2019-02-20T15:20:51.822Z,94473.94
2019-02-20T15:23:19.679Z,94473.11
2019-02-20T15:25:47.561Z,94478.44
2019-02-20T15:28:15.447Z,94476.73
2019-02-20T15:30:43.727Z,94471.94
2019-02-20T15:33:11.598Z,94477.31
2019-02-20T15:35:39.509Z,94474.39
2019-02-20T15:38:07.341Z,94473.37
2019-02-20T15:40:35.438Z,94475.61
2019-02-20T15:43:03.371Z,94483.50
2019-02-20T15:45:31.193Z,94482.19
2019-02-20T15:47:59.031Z,94475.03
2019-02-20T15:50:26.938Z,94471.67
2019-02-20T15:52:54.832Z,94487.56
2019-02-20T15:55:22.729Z,94488.56
2019-02-20T15:57:50.615Z,94487.80
2019-02-20T16:00:19.865Z,94486.42
2019-02-20T16:02:47.732Z,94481.49
2019-02-20T16:05:15.953Z,94485.77
2019-02-20T16:07:43.862Z,94486.67
2019-02-20T16:10:11.675Z,94493.56
2019-02-20T16:12:39.501Z,94491.66
2019-02-20T16:15:08.060Z,94487.48
2019-02-20T16:17:35.954Z,94485.72
2019-02-20T16:20:05.598Z,94488.37
2019-02-20T16:22:33.659Z,94492.23
2019-02-20T16:25:01.545Z,94495.02
2019-02-20T16:27:29.487Z,94495.86
2019-02-20T16:29:57.327Z,94501.05
2019-02-20T16:32:25.189Z,94501.52
2019-02-20T16:34:53.070Z,94498.52
2019-02-20T16:37:21.755Z,94506.44
2019-02-20T16:39:49.965Z,94508.73
2019-02-20T16:42:17.862Z,94503.85
2019-02-20T16:44:45.815Z,94516.03
2019-02-20T16:47:13.677Z,94511.07
2019-02-20T16:49:41.857Z,94516.85
2019-02-20T16:52:09.815Z,94515.79
2019-02-20T16:54:37.729Z,94513.87
2019-02-20T16:57:06.013Z,94512.23
2019-02-20T16:59:33.862Z,94507.64
2019-02-20T17:02:01.850Z,94507.34
2019-02-20T17:04:29.764Z,94517.15
2019-02-20T17:06:57.675Z,94513.25
2019-02-20T17:09:25.512Z,94527.74
2019-02-20T17:11:53.448Z,94531.08
2019-02-20T17:14:21.757Z,94530.78
2019-02-20T17:16:49.542Z,94527.67
2019-02-20T17:19:17.439Z,94537.66
2019-02-20T17:21:46.036Z,94541.59
2019-02-20T17:24:13.933Z,94542.91
2019-02-20T17:26:42.092Z,94541.92
2019-02-20T17:29:09.978Z,94545.88
2019-02-20T17:31:38.394Z,94543.01
2019-02-20T17:34:06.292Z,94540.73
2019-02-20T17:36:34.205Z,94546.63
2019-02-20T17:39:02.257Z,94548.33
2019-02-20T17:41:30.180Z,94554.89
2019-02-20T17:43:58.032Z,94554.56
2019-02-20T17:46:26.061Z,94554.25
2019-02-20T17:48:54.319Z,94558.84
2019-02-20T17:51:22.213Z,94559.53
2019-02-20T17:53:50.078Z,94554.32
2019-02-20T17:56:17.927Z,94560.20
2019-02-20T17:58:45.856Z,94561.84
2019-02-20T18:01:16.429Z,94562.49
2019-02-20T18:03:44.382Z,94557.88
2019-02-20T18:06:12.384Z,94563.09
2019-02-20T18:08:40.297Z,94570.89
2019-02-20T18:11:08.392Z,94571.23
2019-02-20T18:13:36.284Z,94571.87
2019-02-20T18:16:04.431Z,94573.51
2019-02-20T18:18:32.280Z,94574.81
2019-02-20T18:21:00.260Z,94570.52
2019-02-20T18:23:28.096Z,94578.02
2019-02-20T18:25:56.054Z,94574.19
2019-02-20T18:28:24.758Z,94579.86
2019-02-20T18:30:52.886Z,94580.52
2019-02-20T18:33:20.768Z,94583.23
2019-02-20T18:35:48.650Z,94579.91
2019-02-20T18:38:16.523Z,94578.94
2019-02-20T18:40:44.414Z,94586.09
2019-02-20T18:43:12.526Z,94585.40
2019-02-20T18:45:40.433Z,94592.27
2019-02-20T18:48:08.373Z,94593.85
2019-02-20T18:50:36.262Z,94595.16
2019-02-20T18:53:04.241Z,94591.16
2019-02-20T18:55:32.098Z,94596.33
2019-02-20T18:58:00.013Z,94595.64
2019-02-20T19:00:28.095Z,94594.39
2019-02-20T19:02:56.037Z,94587.25
2019-02-20T19:05:24.003Z,94593.61
2019-02-20T19:07:51.859Z,94596.50
2019-02-20T19:10:26.427Z,94590.39
2019-02-20T19:13:49.281Z,94592.68
2019-02-20T19:17:33.808Z,94599.86
2019-02-20T19:20:45.481Z,94605.52
2019-02-20T19:24:20.591Z,94613.45
2019-02-20T19:27:42.159Z,94611.22
2019-02-20T19:31:19.372Z,94612.84
2019-02-20T19:34:40.808Z,94615.98
2019-02-20T19:38:20.706Z,94619.61
2019-02-20T19:41:40.460Z,94621.17
2019-02-20T19:45:21.445Z,94623.19
2019-02-20T19:48:55.631Z,94630.17
2019-02-20T19:52:36.287Z,94635.17
2019-02-20T19:56:08.357Z,94635.50
2019-02-20T19:59:48.043Z,94640.22
2019-02-20T20:03:22.393Z,94638.89
2019-02-20T20:07:08.680Z,94635.50
2019-02-20T20:10:47.290Z,94644.20
2019-02-20T20:13:55.474Z,94646.05
2019-02-20T20:17:20.600Z,94637.28
2019-02-20T20:20:19.647Z,94639.75
2019-02-20T20:23:40.001Z,94640.30
2019-02-20T20:27:20.023Z,94643.30
2019-02-20T20:30:36.621Z,94647.55
2019-02-20T20:33:42.243Z,94653.23
2019-02-20T20:37:30.054Z,94642.55
2019-02-20T20:40:39.814Z,94653.23
2019-02-20T20:43:56.356Z,94649.52
2019-02-20T20:47:27.235Z,94654.45
2019-02-20T20:51:05.645Z,94655.75
2019-02-20T20:54:36.251Z,94655.23
2019-02-20T20:57:50.403Z,94659.02
2019-02-20T21:01:11.700Z,94668.20
2019-02-20T21:03:56.908Z,94667.47
2019-02-20T21:07:05.343Z,94664.96
2019-02-20T21:10:51.466Z,94667.30
2019-02-20T21:14:32.876Z,94671.89
2019-02-20T21:17:45.101Z,94667.86
2019-02-20T21:21:00.845Z,94666.29
2019-02-20T21:24:23.604Z,94667.46
2019-02-20T21:27:56.822Z,94664.08
2019-02-20T21:31:21.794Z,94660.18
2019-02-20T21:34:36.582Z,94660.10
2019-02-20T21:37:57.299Z,94666.73
2019-02-20T21:41:25.937Z,94666.69
2019-02-20T21:45:12.241Z,94672.31
2019-02-20T21:48:22.561Z,94669.38
2019-02-20T21:52:02.758Z,94672.66
2019-02-20T21:55:15.823Z,94673.98
2019-02-20T21:58:50.259Z,94677.41
2019-02-20T22:02:22.338Z,94675.48
2019-02-20T22:05:40.344Z,94678.23
2019-02-20T22:09:36.508Z,94678.64
2019-02-20T22:13:10.008Z,94685.48
2019-02-20T22:16:17.320Z,94678.92
2019-02-20T22:19:32.281Z,94676.32
2019-02-20T22:22:55.722Z,94681.78
2019-02-20T22:26:17.868Z,94677.36
2019-02-20T22:29:35.789Z,94674.81
2019-02-20T22:33:07.376Z,94677.12
2019-02-20T22:36:44.758Z,94682.69
2019-02-20T22:39:55.588Z,94678.55
2019-02-20T22:43:05.409Z,94682.16
2019-02-20T22:46:13.084Z,94683.67
2019-02-20T22:49:39.903Z,94684.78
2019-02-20T22:52:30.439Z,94680.14
2019-02-20T22:55:54.108Z,94681.38
2019-02-20T22:58:56.331Z,94684.94
2019-02-20T23:02:15.102Z,94685.76
2019-02-20T23:05:29.110Z,94684.94
2019-02-20T23:08:37.508Z,94687.63
2019-02-20T23:11:38.041Z,94687.28
2019-02-20T23:14:24.449Z,94695.08
2019-02-20T23:16:52.340Z,94698.34
2019-02-20T23:19:20.264Z,94695.06
2019-02-20T23:21:48.122Z,94700.28
2019-02-20T23:24:16.081Z,94696.72
2019-02-20T23:26:44.018Z,94697.53
2019-02-20T23:29:11.857Z,94706.08
2019-02-20T23:31:39.752Z,94703.98
2019-02-20T23:34:07.559Z,94709.42
2019-02-20T23:36:35.482Z,94709.69
2019-02-20T23:39:05.231Z,94706.55
2019-02-20T23:41:33.074Z,94706.02
2019-02-20T23:44:00.912Z,94703.28
2019-02-20T23:46:28.734Z,94711.48
2019-02-20T23:48:56.583Z,94708.36
2019-02-20T23:51:24.497Z,94713.21
2019-02-20T23:53:52.399Z,94707.38
2019-02-20T23:56:20.247Z,94713.67
2019-02-20T23:58:48.058Z,94715.41
